createdAt,value
2023-05-21T00:00:21.623Z,15.00
2023-05-21T00:01:21.610Z,15.02
2023-05-21T00:02:21.621Z,14.97
2023-05-21T00:03:21.692Z,14.95
2023-05-21T00:04:21.563Z,14.94
2023-05-21T00:05:21.573Z,14.91
2023-05-21T00:06:21.576Z,14.93
2023-05-21T00:07:21.551Z,14.88
2023-05-21T00:08:21.539Z,14.85
2023-05-21T00:09:21.533Z,14.82
2023-05-21T00:10:21.517Z,14.82
2023-05-21T00:11:21.523Z,14.80
2023-05-21T00:12:21.484Z,14.79
2023-05-21T00:13:21.476Z,14.83
2023-05-21T00:14:21.490Z,14.83
2023-05-21T00:15:21.464Z,14.85
2023-05-21T00:16:21.482Z,14.85
2023-05-21T00:17:21.460Z,14.87
2023-05-21T00:18:21.426Z,14.85
2023-05-21T00:19:21.534Z,14.83
2023-05-21T00:20:21.416Z,14.79
2023-05-21T00:21:21.397Z,14.80
2023-05-21T00:22:21.376Z,14.77
2023-05-21T00:23:21.412Z,14.79
2023-05-21T00:24:21.352Z,14.75
2023-05-21T00:25:21.353Z,14.69
2023-05-21T00:26:21.331Z,14.65
2023-05-21T00:27:21.359Z,14.64
2023-05-21T00:28:21.316Z,14.58
2023-05-21T00:29:21.322Z,14.57
2023-05-21T00:30:21.294Z,14.54
2023-05-21T00:31:21.354Z,14.51
2023-05-21T00:32:21.289Z,14.51
2023-05-21T00:33:21.263Z,14.47
2023-05-21T00:34:21.241Z,14.54
2023-05-21T00:35:21.236Z,14.55
2023-05-21T00:36:21.217Z,14.62
2023-05-21T00:37:21.222Z,14.65
2023-05-21T00:38:21.205Z,14.62
2023-05-21T00:39:21.192Z,14.69
2023-05-21T00:40:21.179Z,14.68
2023-05-21T00:41:21.180Z,14.72
2023-05-21T00:42:21.156Z,14.70
2023-05-21T00:43:21.181Z,14.72
2023-05-21T00:44:21.136Z,14.73
2023-05-21T00:45:21.134Z,14.69
2023-05-21T00:46:21.182Z,14.64
2023-05-21T00:47:21.206Z,14.64
2023-05-21T00:48:21.091Z,14.61
2023-05-21T00:49:21.089Z,14.57
2023-05-21T00:50:21.077Z,14.57
2023-05-21T00:51:21.072Z,14.52
2023-05-21T00:52:21.058Z,14.54
2023-05-21T00:53:21.053Z,14.52
2023-05-21T00:54:21.026Z,14.50
2023-05-21T00:55:21.025Z,14.50
2023-05-21T00:56:21.013Z,14.51
2023-05-21T00:57:21.005Z,14.52
2023-05-21T00:58:20.988Z,14.51
2023-05-21T00:59:21.007Z,14.50
2023-05-21T01:00:20.969Z,14.51
2023-05-21T01:01:21.028Z,14.52
2023-05-21T01:02:20.995Z,14.50
2023-05-21T01:03:21.262Z,14.47
2023-05-21T01:04:20.939Z,14.46
2023-05-21T01:05:20.922Z,14.46
2023-05-21T01:06:20.896Z,14.47
2023-05-21T01:07:20.906Z,14.47
2023-05-21T01:08:20.878Z,14.50
2023-05-21T01:09:20.882Z,14.50
2023-05-21T01:10:20.857Z,14.51
2023-05-21T01:11:20.854Z,14.54
2023-05-21T01:12:20.831Z,14.55
2023-05-21T01:13:20.832Z,14.60
2023-05-21T01:14:20.822Z,14.62
2023-05-21T01:15:20.830Z,14.64
2023-05-21T01:16:20.817Z,14.65
2023-05-21T01:17:20.851Z,14.68
2023-05-21T01:18:20.793Z,14.68
2023-05-21T01:19:20.834Z,14.65
2023-05-21T01:20:20.751Z,14.70
2023-05-21T01:21:20.768Z,14.73
2023-05-21T01:22:20.734Z,14.73
2023-05-21T01:23:20.743Z,14.73
2023-05-21T01:24:20.710Z,14.72
2023-05-21T01:25:20.710Z,14.73
2023-05-21T01:26:20.696Z,14.73
2023-05-21T01:27:20.680Z,14.75
2023-05-21T01:28:20.664Z,14.73
2023-05-21T01:29:20.678Z,14.75
2023-05-21T01:30:20.643Z,14.73
2023-05-21T01:31:20.672Z,14.70
2023-05-21T01:32:20.611Z,14.72
2023-05-21T01:33:20.690Z,14.69
2023-05-21T01:34:20.611Z,14.69
2023-05-21T01:35:20.596Z,14.72
2023-05-21T01:36:20.576Z,14.69
2023-05-21T01:37:20.576Z,14.70
2023-05-21T01:38:20.571Z,14.75
2023-05-21T01:39:20.547Z,14.76
2023-05-21T01:40:20.534Z,14.77
2023-05-21T01:41:20.537Z,14.79
2023-05-21T01:42:20.512Z,14.79
2023-05-21T01:43:20.517Z,14.80
2023-05-21T01:44:20.488Z,14.83
2023-05-21T01:45:20.491Z,14.83
2023-05-21T01:46:20.492Z,14.85
2023-05-21T01:47:20.498Z,14.82
2023-05-21T01:48:20.455Z,14.80
2023-05-21T01:49:20.445Z,14.82
2023-05-21T01:50:20.447Z,14.80
2023-05-21T01:51:20.430Z,14.80
2023-05-21T01:52:20.405Z,14.80
2023-05-21T01:53:20.407Z,14.83
2023-05-21T01:54:20.379Z,14.77
2023-05-21T01:55:20.381Z,14.80
2023-05-21T01:56:20.362Z,14.83
2023-05-21T01:57:20.365Z,14.80
2023-05-21T01:58:20.342Z,14.82
2023-05-21T01:59:20.340Z,14.85
2023-05-21T02:00:20.330Z,14.85
2023-05-21T02:01:20.398Z,14.83
2023-05-21T02:02:20.360Z,14.87
2023-05-21T02:03:20.469Z,14.87
2023-05-21T02:04:20.273Z,14.93
2023-05-21T02:05:20.296Z,14.97
2023-05-21T02:06:20.257Z,14.97
2023-05-21T02:07:20.255Z,15.01
2023-05-21T02:08:20.237Z,15.01
2023-05-21T02:09:20.232Z,15.02
2023-05-21T02:10:20.226Z,15.06
2023-05-21T02:11:20.205Z,15.06
2023-05-21T02:12:20.186Z,15.09
2023-05-21T02:13:20.185Z,15.08
2023-05-21T02:14:20.170Z,15.08
2023-05-21T02:15:20.168Z,15.06
2023-05-21T02:16:20.202Z,15.05
2023-05-21T02:17:20.163Z,15.06
2023-05-21T02:18:20.123Z,15.02
2023-05-21T02:19:20.207Z,15.01
2023-05-21T02:20:20.112Z,15.02
2023-05-21T02:21:20.115Z,15.00
2023-05-21T02:22:20.082Z,14.97
2023-05-21T02:23:20.149Z,14.98
2023-05-21T02:24:20.074Z,15.00
2023-05-21T02:25:20.073Z,14.97
2023-05-21T02:26:20.044Z,14.95
2023-05-21T02:27:20.037Z,14.97
2023-05-21T02:28:20.029Z,14.95
2023-05-21T02:29:20.027Z,14.97
2023-05-21T02:30:19.995Z,14.97
2023-05-21T02:31:20.018Z,14.94
2023-05-21T02:32:19.978Z,14.90
2023-05-21T02:33:19.974Z,14.91
2023-05-21T02:34:20.019Z,14.90
2023-05-21T02:35:19.976Z,14.91
2023-05-21T02:36:19.937Z,14.88
2023-05-21T02:37:19.937Z,14.85
2023-05-21T02:38:19.927Z,14.85
2023-05-21T02:39:19.919Z,14.82
2023-05-21T02:40:19.896Z,14.79
2023-05-21T02:41:19.909Z,14.77
2023-05-21T02:42:19.885Z,14.76
2023-05-21T02:43:19.881Z,14.76
2023-05-21T02:44:19.858Z,14.76
2023-05-21T02:45:19.846Z,14.83
2023-05-21T02:46:19.840Z,14.85
2023-05-21T02:47:19.840Z,14.82
2023-05-21T02:48:19.807Z,14.82
2023-05-21T02:49:19.805Z,14.82
2023-05-21T02:50:19.786Z,14.79
2023-05-21T02:51:19.810Z,14.75
2023-05-21T02:52:19.764Z,14.77
2023-05-21T02:53:19.765Z,14.73
2023-05-21T02:54:19.749Z,14.70
2023-05-21T02:55:19.746Z,14.70
2023-05-21T02:56:19.725Z,14.65
2023-05-21T02:57:19.738Z,14.65
2023-05-21T02:58:19.746Z,14.61
2023-05-21T02:59:19.696Z,14.65
2023-05-21T03:00:19.687Z,14.64
2023-05-21T03:01:19.719Z,14.62
2023-05-21T03:02:19.715Z,14.62
2023-05-21T03:03:19.749Z,14.68
2023-05-21T03:04:19.625Z,14.70
2023-05-21T03:05:19.627Z,14.72
2023-05-21T03:06:19.620Z,14.65
2023-05-21T03:07:19.638Z,14.65
2023-05-21T03:08:19.586Z,14.68
2023-05-21T03:09:19.584Z,14.62
2023-05-21T03:10:19.585Z,14.62
2023-05-21T03:11:19.577Z,14.61
2023-05-21T03:12:19.563Z,14.55
2023-05-21T03:13:19.529Z,14.55
2023-05-21T03:14:19.518Z,14.55
2023-05-21T03:15:19.465Z,14.54
2023-05-21T03:16:19.511Z,14.51
2023-05-21T03:17:19.440Z,14.46
2023-05-21T03:18:19.432Z,14.43
2023-05-21T03:19:19.430Z,14.43
2023-05-21T03:20:19.415Z,14.40
2023-05-21T03:21:19.398Z,14.37
2023-05-21T03:22:19.394Z,14.37
2023-05-21T03:23:19.405Z,14.35
2023-05-21T03:24:19.372Z,14.37
2023-05-21T03:25:19.360Z,14.33
2023-05-21T03:26:19.352Z,14.33
2023-05-21T03:27:19.335Z,14.32
2023-05-21T03:28:19.335Z,14.28
2023-05-21T03:29:19.314Z,14.28
2023-05-21T03:30:19.309Z,14.25
2023-05-21T03:31:19.293Z,14.24
2023-05-21T03:32:19.431Z,14.24
2023-05-21T03:33:19.273Z,14.25
2023-05-21T03:34:19.268Z,14.25
2023-05-21T03:35:19.254Z,14.24
2023-05-21T03:36:19.242Z,14.24
2023-05-21T03:37:19.231Z,14.22
2023-05-21T03:38:19.231Z,14.25
2023-05-21T03:39:19.229Z,14.24
2023-05-21T03:40:19.215Z,14.28
2023-05-21T03:41:19.180Z,14.24
2023-05-21T03:42:19.186Z,14.33
2023-05-21T03:43:19.164Z,14.36
2023-05-21T03:44:19.165Z,14.36
2023-05-21T03:45:19.147Z,14.37
2023-05-21T03:46:19.202Z,14.40
2023-05-21T03:47:19.176Z,14.42
2023-05-21T03:48:19.117Z,14.43
2023-05-21T03:49:19.097Z,14.43
2023-05-21T03:50:19.090Z,14.40
2023-05-21T03:51:19.073Z,14.37
2023-05-21T03:52:19.080Z,14.37
2023-05-21T03:53:19.054Z,14.36
2023-05-21T03:54:19.071Z,14.32
2023-05-21T03:55:19.059Z,14.32
2023-05-21T03:56:19.036Z,14.28
2023-05-21T03:57:19.009Z,14.28
2023-05-21T03:58:19.018Z,14.24
2023-05-21T03:59:19.009Z,14.22
2023-05-21T04:00:18.983Z,14.24
2023-05-21T04:01:18.964Z,14.21
2023-05-21T04:02:19.025Z,14.21
2023-05-21T04:03:19.082Z,14.22
2023-05-21T04:04:18.975Z,14.17
2023-05-21T04:05:18.930Z,14.17
2023-05-21T04:06:18.925Z,14.14
2023-05-21T04:07:18.903Z,14.14
2023-05-21T04:08:18.908Z,14.15
2023-05-21T04:09:18.877Z,14.14
2023-05-21T04:10:18.885Z,14.10
2023-05-21T04:11:18.879Z,14.15
2023-05-21T04:12:18.858Z,14.15
2023-05-21T04:13:18.842Z,14.12
2023-05-21T04:14:18.829Z,14.15
2023-05-21T04:15:18.821Z,14.15
2023-05-21T04:16:18.867Z,14.17
2023-05-21T04:17:18.807Z,14.17
2023-05-21T04:18:18.805Z,14.22
2023-05-21T04:20:18.769Z,14.27
2023-05-21T04:21:18.752Z,14.29
2023-05-21T04:22:18.744Z,14.32
2023-05-21T04:23:18.734Z,14.32
2023-05-21T04:24:18.732Z,14.29
2023-05-21T04:25:18.724Z,14.25
2023-05-21T04:26:18.710Z,14.33
2023-05-21T04:27:18.709Z,14.32
2023-05-21T04:28:18.694Z,14.33
2023-05-21T04:29:18.667Z,14.33
2023-05-21T04:30:18.689Z,14.36
2023-05-21T04:31:18.743Z,14.37
2023-05-21T04:32:18.662Z,14.36
2023-05-21T04:33:18.691Z,14.37
2023-05-21T04:34:18.631Z,14.40
2023-05-21T04:35:18.606Z,14.43
2023-05-21T04:36:18.594Z,14.46
2023-05-21T04:37:18.573Z,14.45
2023-05-21T04:38:18.593Z,14.52
2023-05-21T04:39:18.584Z,14.52
2023-05-21T04:40:18.614Z,14.51
2023-05-21T04:41:18.547Z,14.58
2023-05-21T04:42:18.545Z,14.57
2023-05-21T04:43:18.544Z,14.61
2023-05-21T04:44:18.516Z,14.60
2023-05-21T04:45:18.519Z,14.62
2023-05-21T04:46:18.511Z,14.62
2023-05-21T04:47:18.483Z,14.68
2023-05-21T04:48:18.477Z,14.68
2023-05-21T04:49:18.453Z,14.72
2023-05-21T04:50:18.443Z,14.77
2023-05-21T04:51:18.433Z,14.79
2023-05-21T04:52:18.435Z,14.80
2023-05-21T04:53:18.414Z,14.83
2023-05-21T04:54:18.415Z,14.88
2023-05-21T04:55:18.399Z,14.91
2023-05-21T04:56:18.380Z,14.93
2023-05-21T04:57:18.422Z,14.95
2023-05-21T04:58:18.418Z,14.98
2023-05-21T04:59:18.367Z,15.05
2023-05-21T05:00:18.348Z,15.02
2023-05-21T05:01:18.388Z,15.10
2023-05-21T05:02:18.318Z,15.18
2023-05-21T05:03:18.592Z,15.15
2023-05-21T05:04:18.308Z,15.18
2023-05-21T05:05:18.290Z,15.16
2023-05-21T05:06:18.281Z,15.18
2023-05-21T05:07:18.276Z,15.22
2023-05-21T05:08:18.255Z,15.27
2023-05-21T05:09:18.242Z,15.33
2023-05-21T05:10:18.238Z,15.35
2023-05-21T05:11:18.212Z,15.34
2023-05-21T05:12:18.216Z,15.37
2023-05-21T05:13:18.194Z,15.38
2023-05-21T05:14:18.218Z,15.42
2023-05-21T05:15:18.201Z,15.42
2023-05-21T05:16:18.219Z,15.50
2023-05-21T05:17:18.153Z,15.60
2023-05-21T05:18:18.151Z,15.62
2023-05-21T05:19:18.219Z,15.62
2023-05-21T05:20:18.145Z,15.74
2023-05-21T05:21:18.112Z,15.74
2023-05-21T05:22:18.107Z,15.74
2023-05-21T05:23:18.097Z,15.75
2023-05-21T05:24:18.086Z,15.76
2023-05-21T05:25:18.069Z,15.84
2023-05-21T05:26:18.060Z,15.87
2023-05-21T05:27:18.041Z,15.94
2023-05-21T05:28:18.043Z,15.97
2023-05-21T05:29:18.053Z,15.97
2023-05-21T05:30:18.016Z,16.05
2023-05-21T05:31:18.103Z,16.05
2023-05-21T05:32:18.002Z,16.14
2023-05-21T05:33:17.982Z,16.24
2023-05-21T05:34:17.982Z,16.33
2023-05-21T05:35:17.970Z,16.59
2023-05-21T05:36:17.957Z,16.67
2023-05-21T05:37:17.962Z,16.87
2023-05-21T05:38:17.932Z,17.00
2023-05-21T05:39:17.915Z,17.07
2023-05-21T05:40:17.915Z,17.31
2023-05-21T05:41:17.908Z,17.71
2023-05-21T05:42:17.893Z,17.95
2023-05-21T05:43:17.871Z,17.96
2023-05-21T05:44:17.869Z,17.88
2023-05-21T05:45:17.854Z,17.80
2023-05-21T05:46:17.866Z,17.88
2023-05-21T05:47:17.850Z,18.02
2023-05-21T05:48:17.830Z,18.25
2023-05-21T05:49:17.800Z,18.13
2023-05-21T05:50:17.801Z,18.10
2023-05-21T05:51:17.778Z,17.98
2023-05-21T05:52:17.795Z,17.99
2023-05-21T05:53:17.758Z,17.98
2023-05-21T05:54:17.761Z,18.02
2023-05-21T05:55:17.741Z,18.47
2023-05-21T05:56:17.740Z,19.00
2023-05-21T05:57:17.727Z,19.50
2023-05-21T05:58:17.711Z,19.95
2023-05-21T05:59:17.710Z,20.32
2023-05-21T06:00:17.685Z,20.75
2023-05-21T06:01:17.758Z,21.25
2023-05-21T06:02:17.793Z,21.50
2023-05-21T06:03:17.874Z,21.40
2023-05-21T06:04:17.652Z,21.22
2023-05-21T06:05:17.786Z,21.09
2023-05-21T06:06:17.829Z,21.17
2023-05-21T06:07:17.659Z,21.31
2023-05-21T06:08:17.698Z,21.19
2023-05-21T06:09:17.590Z,21.43
2023-05-21T06:10:17.692Z,21.59
2023-05-21T06:11:17.560Z,21.77
2023-05-21T06:12:17.561Z,21.83
2023-05-21T06:13:17.538Z,22.02
2023-05-21T06:14:17.537Z,22.32
2023-05-21T06:15:17.521Z,22.17
2023-05-21T06:16:17.594Z,21.68
2023-05-21T06:17:17.505Z,21.69
2023-05-21T06:18:17.493Z,21.89
2023-05-21T06:19:17.549Z,22.23
2023-05-21T06:20:17.477Z,22.46
2023-05-21T06:21:17.456Z,22.09
2023-05-21T06:22:17.454Z,22.04
2023-05-21T06:23:17.433Z,22.32
2023-05-21T06:24:17.454Z,22.27
2023-05-21T06:25:17.419Z,22.41
2023-05-21T06:26:17.409Z,22.13
2023-05-21T06:27:17.412Z,22.04
2023-05-21T06:28:17.386Z,21.87
2023-05-21T06:29:17.387Z,21.84
2023-05-21T06:30:17.364Z,21.69
2023-05-21T06:31:17.357Z,21.59
2023-05-21T06:32:17.398Z,21.11
2023-05-21T06:33:17.414Z,20.91
2023-05-21T06:34:17.327Z,21.00
2023-05-21T06:35:17.333Z,20.61
2023-05-21T06:36:17.305Z,20.41
2023-05-21T06:37:17.289Z,20.39
2023-05-21T06:38:17.286Z,20.26
2023-05-21T06:39:17.254Z,20.11
2023-05-21T06:40:17.255Z,19.88
2023-05-21T06:41:17.238Z,19.92
2023-05-21T06:42:17.237Z,20.02
2023-05-21T06:43:17.227Z,20.26
2023-05-21T06:44:17.213Z,20.26
2023-05-21T06:45:17.192Z,21.02
2023-05-21T06:46:17.219Z,21.03
2023-05-21T06:47:17.172Z,21.21
2023-05-21T06:48:17.187Z,21.19
2023-05-21T06:49:17.161Z,21.34
2023-05-21T06:50:17.177Z,21.95
2023-05-21T06:51:17.156Z,22.44
2023-05-21T06:52:17.126Z,22.92
2023-05-21T06:53:17.110Z,23.19
2023-05-21T06:54:17.113Z,23.20
2023-05-21T06:55:17.090Z,23.34
2023-05-21T06:56:17.111Z,23.96
2023-05-21T06:57:17.068Z,24.61
2023-05-21T06:58:17.074Z,24.68
2023-05-21T06:59:17.055Z,24.90
2023-05-21T07:00:17.041Z,24.61
2023-05-21T07:01:17.173Z,24.53
2023-05-21T07:02:17.089Z,24.57
2023-05-21T07:03:17.105Z,24.84
2023-05-21T07:04:17.002Z,24.84
2023-05-21T07:05:16.991Z,24.82
2023-05-21T07:06:16.995Z,25.17
2023-05-21T07:07:16.977Z,25.19
2023-05-21T07:08:16.957Z,24.83
2023-05-21T07:09:16.942Z,24.62
2023-05-21T07:10:16.933Z,24.67
2023-05-21T07:11:16.911Z,24.83
2023-05-21T07:12:16.910Z,24.40
2023-05-21T07:13:16.893Z,24.03
2023-05-21T07:14:16.887Z,24.06
2023-05-21T07:15:16.875Z,24.20
2023-05-21T07:16:16.924Z,24.06
2023-05-21T07:17:16.844Z,24.21
2023-05-21T07:18:16.876Z,24.62
2023-05-21T07:19:16.895Z,24.75
2023-05-21T07:20:16.836Z,24.76
2023-05-21T07:21:16.817Z,24.67
2023-05-21T07:22:16.800Z,24.60
2023-05-21T07:23:16.810Z,24.69
2023-05-21T07:24:16.792Z,24.83
2023-05-21T07:25:16.756Z,25.29
2023-05-21T07:26:16.765Z,25.37
2023-05-21T07:27:25.473Z,24.98
2023-05-21T07:28:17.773Z,25.26
2023-05-21T07:29:16.730Z,25.51
2023-05-21T07:30:16.705Z,25.77
2023-05-21T07:31:16.733Z,25.54
2023-05-21T07:32:16.686Z,24.94
2023-05-21T07:33:16.697Z,24.82
2023-05-21T07:34:16.668Z,24.97
2023-05-21T07:35:16.662Z,25.45
2023-05-21T07:36:16.642Z,25.76
2023-05-21T07:37:16.647Z,25.85
2023-05-21T07:38:16.618Z,26.01
2023-05-21T07:39:16.747Z,25.94
2023-05-21T07:40:16.639Z,26.29
2023-05-21T07:41:18.559Z,26.72
2023-05-21T07:42:16.585Z,27.02
2023-05-21T07:43:16.586Z,27.14
2023-05-21T07:44:16.562Z,26.95
2023-05-21T07:45:16.585Z,26.43
2023-05-21T07:46:16.622Z,26.16
2023-05-21T07:47:16.537Z,25.75
2023-05-21T07:48:16.517Z,25.13
2023-05-21T07:49:16.690Z,25.34
2023-05-21T07:50:16.497Z,25.90
2023-05-21T07:51:16.492Z,26.43
2023-05-21T07:52:16.487Z,26.80
2023-05-21T07:53:16.474Z,27.31
2023-05-21T07:54:16.465Z,27.50
2023-05-21T07:55:16.481Z,27.64
2023-05-21T07:56:16.450Z,27.56
2023-05-21T07:57:16.432Z,27.56
2023-05-21T07:58:16.417Z,27.93
2023-05-21T07:59:16.413Z,27.73
2023-05-21T08:00:16.403Z,27.44
2023-05-21T08:01:16.405Z,27.04
2023-05-21T08:02:16.380Z,26.47
2023-05-21T08:03:16.624Z,26.01
2023-05-21T08:04:16.467Z,25.75
2023-05-21T08:05:16.518Z,25.58
2023-05-21T08:06:16.337Z,25.01
2023-05-21T08:07:16.327Z,24.37
2023-05-21T08:08:16.316Z,23.50
2023-05-21T08:09:16.309Z,23.10
2023-05-21T08:10:19.090Z,23.19
2023-05-21T08:11:16.340Z,23.30
2023-05-21T08:12:16.294Z,23.84
2023-05-21T08:13:16.306Z,24.15
2023-05-21T08:14:16.253Z,24.53
2023-05-21T08:15:16.258Z,24.61
2023-05-21T08:16:16.249Z,24.42
2023-05-21T08:17:16.217Z,24.22
2023-05-21T08:18:16.201Z,23.74
2023-05-21T08:19:16.248Z,23.50
2023-05-21T08:20:16.183Z,23.34
2023-05-21T08:21:16.176Z,23.19
2023-05-21T08:22:16.163Z,23.15
2023-05-21T08:23:16.156Z,23.02
2023-05-21T08:24:16.144Z,22.72
2023-05-21T08:25:16.137Z,22.56
2023-05-21T08:26:16.117Z,22.76
2023-05-21T08:27:16.188Z,23.12
2023-05-21T08:28:16.102Z,23.78
2023-05-21T08:29:16.099Z,24.67
2023-05-21T08:30:16.070Z,25.20
2023-05-21T08:31:16.102Z,25.97
2023-05-21T08:32:16.298Z,26.75
2023-05-21T08:33:16.053Z,27.27
2023-05-21T08:34:16.027Z,27.49
2023-05-21T08:35:16.046Z,27.96
2023-05-21T08:36:16.009Z,28.55
2023-05-21T08:37:16.004Z,28.88
2023-05-21T08:38:15.992Z,28.93
2023-05-21T08:39:15.983Z,29.20
2023-05-21T08:40:15.969Z,29.67
2023-05-21T08:41:15.968Z,30.11
2023-05-21T08:42:22.634Z,30.10
2023-05-21T08:43:17.001Z,30.34
2023-05-21T08:44:15.922Z,30.74
2023-05-21T08:45:15.920Z,30.61
2023-05-21T08:46:15.938Z,30.68
2023-05-21T08:47:15.900Z,30.61
2023-05-21T08:48:15.882Z,30.45
2023-05-21T08:49:15.874Z,30.20
2023-05-21T08:50:15.854Z,29.89
2023-05-21T08:51:15.859Z,30.05
2023-05-21T08:52:15.837Z,29.95
2023-05-21T08:53:27.368Z,29.36
2023-05-21T08:54:16.873Z,28.76
2023-05-21T08:55:15.814Z,28.05
2023-05-21T08:56:15.795Z,27.32
2023-05-21T08:57:15.791Z,27.32
2023-05-21T08:58:15.775Z,27.83
2023-05-21T08:59:15.793Z,28.08
2023-05-21T09:00:15.750Z,28.18
2023-05-21T09:01:15.812Z,28.54
2023-05-21T09:02:15.744Z,28.33
2023-05-21T09:03:15.870Z,28.03
2023-05-21T09:04:20.702Z,27.99
2023-05-21T09:05:15.707Z,28.16
2023-05-21T09:06:15.684Z,28.01
2023-05-21T09:07:15.688Z,27.96
2023-05-21T09:08:15.670Z,27.81
2023-05-21T09:09:15.662Z,28.06
2023-05-21T09:10:15.656Z,28.74
2023-05-21T09:11:15.640Z,28.89
2023-05-21T09:12:15.634Z,28.99
2023-05-21T09:13:15.617Z,28.76
2023-05-21T09:14:15.591Z,28.88
2023-05-21T09:15:15.622Z,29.30
2023-05-21T09:16:15.584Z,30.07
2023-05-21T09:17:15.576Z,30.19
2023-05-21T09:18:15.591Z,30.60
2023-05-21T09:19:15.601Z,31.11
2023-05-21T09:20:15.532Z,31.14
2023-05-21T09:21:15.532Z,30.37
2023-05-21T09:22:15.511Z,29.52
2023-05-21T09:23:15.511Z,29.27
2023-05-21T09:24:15.510Z,29.10
2023-05-21T09:25:15.513Z,28.59
2023-05-21T09:26:15.479Z,28.73
2023-05-21T09:27:15.468Z,28.74
2023-05-21T09:28:15.477Z,28.21
2023-05-21T09:29:15.453Z,27.84
2023-05-21T09:30:15.457Z,27.95
2023-05-21T09:31:15.500Z,27.76
2023-05-21T09:32:15.412Z,27.61
2023-05-21T09:33:15.418Z,27.49
2023-05-21T09:34:15.393Z,27.31
2023-05-21T09:35:15.399Z,27.46
2023-05-21T09:36:15.384Z,27.40
2023-05-21T09:37:26.471Z,27.68
2023-05-21T09:38:16.401Z,28.23
2023-05-21T09:39:15.342Z,28.58
2023-05-21T09:40:15.328Z,28.55
2023-05-21T09:41:17.875Z,29.08
2023-05-21T09:42:15.303Z,29.50
2023-05-21T09:43:15.311Z,29.67
2023-05-21T09:44:15.298Z,30.15
2023-05-21T09:45:15.286Z,30.41
2023-05-21T09:46:15.295Z,30.90
2023-05-21T09:47:15.288Z,31.21
2023-05-21T09:48:15.255Z,31.44
2023-05-21T09:49:15.240Z,31.57
2023-05-21T09:50:15.222Z,31.83
2023-05-21T09:51:15.244Z,32.21
2023-05-21T09:52:15.209Z,32.05
2023-05-21T09:53:15.200Z,31.99
2023-05-21T09:54:15.179Z,31.76
2023-05-21T09:55:15.179Z,31.84
2023-05-21T09:56:15.165Z,31.08
2023-05-21T09:57:15.159Z,30.68
2023-05-21T09:58:15.139Z,30.37
2023-05-21T09:59:15.141Z,29.82
2023-05-21T10:00:15.128Z,29.66
2023-05-21T10:01:15.151Z,29.64
2023-05-21T10:02:15.194Z,29.71
2023-05-21T10:03:15.210Z,29.71
2023-05-21T10:04:15.112Z,29.80
2023-05-21T10:05:15.077Z,29.70
2023-05-21T10:06:15.053Z,29.41
2023-05-21T10:07:15.055Z,29.03
2023-05-21T10:08:15.032Z,28.49
2023-05-21T10:09:15.040Z,28.11
2023-05-21T10:10:15.020Z,28.51
2023-05-21T10:11:15.017Z,28.67
2023-05-21T10:12:14.999Z,29.05
2023-05-21T10:13:14.998Z,28.98
2023-05-21T10:14:14.973Z,29.15
2023-05-21T10:15:14.992Z,29.05
2023-05-21T10:16:15.007Z,29.27
2023-05-21T10:17:14.952Z,29.59
2023-05-21T10:18:14.941Z,29.79
2023-05-21T10:19:14.990Z,29.97
2023-05-21T10:20:14.910Z,30.46
2023-05-21T10:21:14.919Z,30.87
2023-05-21T10:22:14.886Z,31.13
2023-05-21T10:23:14.886Z,31.25
2023-05-21T10:24:14.876Z,31.56
2023-05-21T10:25:14.872Z,31.62
2023-05-21T10:26:14.845Z,31.57
2023-05-21T10:27:14.849Z,31.11
2023-05-21T10:28:14.836Z,30.31
2023-05-21T10:29:16.276Z,29.73
2023-05-21T10:30:14.820Z,29.86
2023-05-21T10:31:14.806Z,29.98
2023-05-21T10:32:14.872Z,29.94
2023-05-21T10:33:14.932Z,29.41
2023-05-21T10:34:14.771Z,29.67
2023-05-21T10:35:14.794Z,29.64
2023-05-21T10:36:14.748Z,29.38
2023-05-21T10:37:14.749Z,29.20
2023-05-21T10:38:14.730Z,29.07
2023-05-21T10:39:14.724Z,28.70
2023-05-21T10:40:14.709Z,28.95
2023-05-21T10:41:14.711Z,29.41
2023-05-21T10:42:14.684Z,29.94
2023-05-21T10:43:14.685Z,30.00
2023-05-21T10:44:14.661Z,30.23
2023-05-21T10:45:14.658Z,30.46
2023-05-21T10:46:14.726Z,30.81
2023-05-21T10:47:14.639Z,31.05
2023-05-21T10:48:14.683Z,31.21
2023-05-21T10:49:14.631Z,31.44
2023-05-21T10:50:14.611Z,31.25
2023-05-21T10:51:14.638Z,31.69
2023-05-21T10:52:14.583Z,31.81
2023-05-21T10:53:14.589Z,31.56
2023-05-21T10:54:14.566Z,31.68
2023-05-21T10:55:14.569Z,31.84
2023-05-21T10:56:14.544Z,31.54
2023-05-21T10:57:14.544Z,31.43
2023-05-21T10:58:14.526Z,31.17
2023-05-21T10:59:14.514Z,31.00
2023-05-21T11:00:14.541Z,31.11
2023-05-21T11:01:14.532Z,31.23
2023-05-21T11:02:14.512Z,31.03
2023-05-21T11:03:14.618Z,31.17
2023-05-21T11:04:14.462Z,31.39
2023-05-21T11:05:14.459Z,31.20
2023-05-21T11:06:14.439Z,31.20
2023-05-21T11:07:14.469Z,31.29
2023-05-21T11:08:14.433Z,31.06
2023-05-21T11:09:14.420Z,30.69
2023-05-21T11:10:14.425Z,30.81
2023-05-21T11:11:14.393Z,31.03
2023-05-21T11:12:14.397Z,31.35
2023-05-21T11:13:14.390Z,31.06
2023-05-21T11:14:14.371Z,31.16
2023-05-21T11:15:14.354Z,31.21
2023-05-21T11:16:14.329Z,31.13
2023-05-21T11:17:14.521Z,31.19
2023-05-21T11:18:14.322Z,31.39
2023-05-21T11:19:14.355Z,31.28
2023-05-21T11:20:14.389Z,31.32
2023-05-21T11:21:14.298Z,31.48
2023-05-21T11:22:14.279Z,31.73
2023-05-21T11:23:14.300Z,31.69
2023-05-21T11:24:14.257Z,31.34
2023-05-21T11:25:14.250Z,31.20
2023-05-21T11:26:14.234Z,31.41
2023-05-21T11:27:14.236Z,31.62
2023-05-21T11:28:14.212Z,30.96
2023-05-21T11:29:14.219Z,30.91
2023-05-21T11:30:14.211Z,30.93
2023-05-21T11:31:14.221Z,31.25
2023-05-21T11:32:14.185Z,31.19
2023-05-21T11:33:14.416Z,31.17
2023-05-21T11:34:14.166Z,31.08
2023-05-21T11:35:14.155Z,30.46
2023-05-21T11:36:14.140Z,30.53
2023-05-21T11:37:14.141Z,30.52
2023-05-21T11:38:14.136Z,30.26
2023-05-21T11:39:14.130Z,30.63
2023-05-21T11:40:14.122Z,30.91
2023-05-21T11:41:14.098Z,31.11
2023-05-21T11:42:14.085Z,31.43
2023-05-21T11:43:14.076Z,31.34
2023-05-21T11:44:14.074Z,31.41
2023-05-21T11:45:14.047Z,31.06
2023-05-21T11:46:14.101Z,31.20
2023-05-21T11:47:14.028Z,31.17
2023-05-21T11:48:14.032Z,30.82
2023-05-21T11:49:14.011Z,30.63
2023-05-21T11:50:14.021Z,30.76
2023-05-21T11:51:13.981Z,30.71
2023-05-21T11:52:13.998Z,30.27
2023-05-21T11:53:13.965Z,30.23
2023-05-21T11:54:13.965Z,30.23
2023-05-21T11:55:13.971Z,30.07
2023-05-21T11:56:13.940Z,30.00
2023-05-21T11:57:13.930Z,29.98
2023-05-21T11:58:13.923Z,30.15
2023-05-21T11:59:14.261Z,30.37
2023-05-21T12:00:13.931Z,30.75
2023-05-21T12:01:13.889Z,31.14
2023-05-21T12:02:13.896Z,31.29
2023-05-21T12:03:13.944Z,31.29
2023-05-21T12:04:13.877Z,31.16
2023-05-21T12:05:13.874Z,31.25
2023-05-21T12:06:13.903Z,31.05
2023-05-21T12:07:13.837Z,30.87
2023-05-21T12:08:13.826Z,31.31
2023-05-21T12:09:13.815Z,31.54
2023-05-21T12:10:13.814Z,31.34
2023-05-21T12:11:13.825Z,31.53
2023-05-21T12:12:13.804Z,31.46
2023-05-21T12:13:13.790Z,31.63
2023-05-21T12:14:13.820Z,32.00
2023-05-21T12:15:13.797Z,32.12
2023-05-21T12:16:13.800Z,32.25
2023-05-21T12:17:13.744Z,32.47
2023-05-21T12:18:13.790Z,32.20
2023-05-21T12:19:13.785Z,32.07
2023-05-21T12:20:13.729Z,31.78
2023-05-21T12:21:13.710Z,31.25
2023-05-21T12:22:13.706Z,31.26
2023-05-21T12:23:13.679Z,31.32
2023-05-21T12:24:13.676Z,31.65
2023-05-21T12:25:13.675Z,31.75
2023-05-21T12:26:13.668Z,31.76
2023-05-21T12:27:13.784Z,31.26
2023-05-21T12:28:13.643Z,31.23
2023-05-21T12:29:13.621Z,31.32
2023-05-21T12:30:13.642Z,31.08
2023-05-21T12:31:13.607Z,31.05
2023-05-21T12:32:13.643Z,31.00
2023-05-21T12:33:13.588Z,30.98
2023-05-21T12:34:13.590Z,30.69
2023-05-21T12:35:13.609Z,30.90
2023-05-21T12:36:13.562Z,31.03
2023-05-21T12:37:13.549Z,31.34
2023-05-21T12:38:13.548Z,31.38
2023-05-21T12:39:13.528Z,31.19
2023-05-21T12:40:13.551Z,30.96
2023-05-21T12:41:13.506Z,31.11
2023-05-21T12:42:13.516Z,31.32
2023-05-21T12:43:13.507Z,31.46
2023-05-21T12:44:13.515Z,31.75
2023-05-21T12:45:13.473Z,32.18
2023-05-21T12:46:13.491Z,32.46
2023-05-21T12:47:13.500Z,32.89
2023-05-21T12:48:13.442Z,33.16
2023-05-21T12:49:13.438Z,33.56
2023-05-21T12:50:13.430Z,33.64
2023-05-21T12:51:13.406Z,33.62
2023-05-21T12:52:13.416Z,33.21
2023-05-21T12:53:13.393Z,32.51